Deepwater, New Jersey
Current Conditions -  °F | °C
As of 12:51 AM on Wednesday 22 Oct 2014 (Local Time) from KILG Reporting Station
Broken Clouds Broken Clouds  
Wind Chill: 56°   Ceiling: 12000
Heat Index: 56°   Visibility: 10mi
Dew Point: 52°   Wind: 8mph
Humidity: 87%   Direction: 350°N
Pressure: 29.87"   Gusts: NA
Location:  39.68°N, 75.49°W
Report Text: KILG 220451Z 35007KT 10SM BKN120 13/11 A2987 RMK AO2 LTG DSNT SW AND W SLP114 T01330111 402170089
Loading
Personal Weather Stations






























Interactive Weather Map
Tropical Storm Tracking
New forecast layout! Learn more

10-Day Weather Forecast

Advertisements
Track Severe Weather on mobile